createdAt,value
2018-08-28T00:00:12.407Z,3.17
2018-08-28T00:03:16.672Z,3.10
2018-08-28T00:06:20.114Z,3.00
2018-08-28T00:09:23.995Z,2.87
2018-08-28T00:12:27.451Z,3.20
2018-08-28T00:15:30.703Z,3.07
2018-08-28T00:18:34.032Z,2.90
2018-08-28T00:21:37.309Z,2.93
2018-08-28T00:24:40.610Z,3.40
2018-08-28T00:27:43.889Z,3.30
2018-08-28T00:30:47.398Z,3.10
2018-08-28T00:33:51.609Z,3.20
2018-08-28T00:36:55.631Z,3.00
2018-08-28T00:39:58.799Z,3.73
2018-08-28T00:43:02.191Z,3.83
2018-08-28T00:46:05.437Z,3.43
2018-08-28T00:49:08.748Z,3.50
2018-08-28T00:52:13.047Z,3.50
2018-08-28T00:55:16.337Z,3.90
2018-08-28T00:58:20.554Z,3.93
2018-08-28T01:01:24.865Z,4.00
2018-08-28T01:04:28.166Z,4.10
2018-08-28T01:07:31.470Z,4.10
2018-08-28T01:10:34.789Z,3.97
2018-08-28T01:13:38.134Z,3.63
2018-08-28T01:16:41.479Z,4.03
2018-08-28T01:19:44.772Z,3.50
2018-08-28T01:22:48.075Z,3.63
2018-08-28T01:25:51.364Z,3.80
2018-08-28T01:28:55.361Z,3.90
2018-08-28T01:31:58.605Z,3.80
2018-08-28T01:35:01.849Z,4.13
2018-08-28T01:38:05.157Z,3.80
2018-08-28T01:41:08.347Z,3.87
2018-08-28T01:44:11.669Z,4.00
2018-08-28T01:47:14.872Z,4.30
2018-08-28T01:50:18.146Z,3.80
2018-08-28T01:53:21.689Z,4.43
2018-08-28T01:56:26.005Z,4.50
2018-08-28T01:59:29.136Z,4.10
2018-08-28T02:02:32.350Z,3.90
2018-08-28T02:05:35.694Z,4.60
2018-08-28T02:08:39.260Z,4.27
2018-08-28T02:11:42.598Z,4.07
2018-08-28T02:14:45.863Z,3.80
2018-08-28T02:17:49.056Z,3.97
2018-08-28T02:20:52.334Z,4.13
2018-08-28T02:23:55.786Z,3.80
2018-08-28T02:26:59.085Z,4.10
2018-08-28T02:30:02.481Z,4.13
2018-08-28T02:33:05.881Z,4.17
2018-08-28T02:36:09.293Z,4.27
2018-08-28T02:39:12.580Z,3.70
2018-08-28T02:42:15.858Z,4.47
2018-08-28T02:45:19.224Z,3.90
2018-08-28T02:48:23.162Z,4.03
2018-08-28T02:51:26.358Z,3.97
2018-08-28T02:54:29.651Z,4.27
2018-08-28T02:57:32.926Z,4.20
2018-08-28T03:00:36.319Z,3.97
2018-08-28T03:03:39.557Z,4.00
2018-08-28T03:06:42.872Z,3.73
2018-08-28T03:09:46.150Z,4.00
2018-08-28T03:12:49.423Z,4.43
2018-08-28T03:15:53.179Z,4.40
2018-08-28T03:18:56.344Z,4.37
2018-08-28T03:21:59.613Z,3.93
2018-08-28T03:25:03.162Z,4.20
2018-08-28T03:28:06.568Z,4.60
2018-08-28T03:31:09.895Z,4.60
2018-08-28T03:34:14.263Z,4.23
2018-08-28T03:37:17.543Z,4.60
2018-08-28T03:40:20.881Z,4.40
2018-08-28T03:43:25.671Z,4.20
2018-08-28T03:46:28.968Z,4.37
2018-08-28T03:49:32.276Z,4.33
2018-08-28T03:52:35.675Z,4.23
2018-08-28T03:55:38.973Z,4.30
2018-08-28T03:58:42.263Z,4.90
2018-08-28T04:01:45.570Z,4.33
2018-08-28T04:04:49.781Z,4.70
2018-08-28T04:07:54.066Z,4.30
2018-08-28T04:10:58.343Z,4.17
2018-08-28T04:14:03.581Z,4.57
2018-08-28T04:17:06.889Z,4.40
2018-08-28T04:20:10.097Z,4.43
2018-08-28T04:23:13.493Z,4.10
2018-08-28T04:26:16.754Z,4.17
2018-08-28T04:29:20.085Z,4.03
2018-08-28T04:32:24.281Z,4.07
2018-08-28T04:35:27.584Z,4.00
2018-08-28T04:38:31.163Z,4.60
2018-08-28T04:41:34.577Z,4.50
2018-08-28T04:44:37.927Z,3.73
2018-08-28T04:47:41.224Z,4.37
2018-08-28T04:50:44.468Z,4.10
2018-08-28T04:53:47.866Z,3.90
2018-08-28T04:56:51.205Z,4.10
2018-08-28T04:59:55.193Z,4.00
2018-08-28T05:02:58.457Z,4.17
2018-08-28T05:06:01.796Z,4.83
2018-08-28T05:09:06.332Z,4.50
2018-08-28T05:12:09.481Z,4.20
2018-08-28T05:15:12.787Z,4.03
2018-08-28T05:18:15.974Z,4.60
2018-08-28T05:21:19.283Z,3.53
2018-08-28T05:24:23.239Z,3.83
2018-08-28T05:27:26.364Z,4.17
2018-08-28T05:30:29.737Z,3.93
2018-08-28T05:33:34.111Z,4.13
2018-08-28T05:36:37.516Z,3.83
2018-08-28T05:39:40.881Z,4.40
2018-08-28T05:42:44.318Z,4.30
2018-08-28T05:45:47.908Z,4.47
2018-08-28T05:48:51.231Z,5.47
2018-08-28T05:51:56.128Z,5.37
2018-08-28T05:54:59.438Z,6.03
2018-08-28T05:58:04.754Z,5.90
2018-08-28T06:01:07.930Z,5.73
2018-08-28T06:04:11.591Z,6.37
2018-08-28T06:07:14.833Z,6.17
2018-08-28T06:10:18.025Z,6.37
2018-08-28T06:13:21.475Z,6.10
2018-08-28T06:16:25.954Z,6.50
2018-08-28T06:19:29.354Z,6.07
2018-08-28T06:22:32.689Z,6.50
2018-08-28T06:25:36.902Z,6.90
2018-08-28T06:28:40.273Z,6.67
2018-08-28T06:31:43.530Z,7.33
2018-08-28T06:34:46.789Z,6.80
2018-08-28T06:37:50.067Z,7.07
2018-08-28T06:40:53.360Z,7.00
2018-08-28T06:43:56.647Z,7.03
2018-08-28T06:46:59.806Z,7.37
2018-08-28T06:50:03.253Z,6.43
2018-08-28T06:53:06.423Z,7.27
2018-08-28T06:56:09.762Z,7.27
2018-08-28T06:59:12.994Z,7.87
2018-08-28T07:02:16.295Z,7.23
2018-08-28T07:05:20.556Z,7.80
2018-08-28T07:08:23.943Z,7.47
2018-08-28T07:11:27.266Z,7.63
2018-08-28T07:14:30.551Z,7.77
2018-08-28T07:17:33.803Z,7.70
2018-08-28T07:20:37.094Z,6.70
2018-08-28T07:23:40.459Z,6.87
2018-08-28T07:26:43.690Z,7.40
2018-08-28T07:29:47.023Z,6.80
2018-08-28T07:32:50.305Z,6.80
2018-08-28T07:35:54.391Z,6.70
2018-08-28T07:38:57.604Z,6.10
2018-08-28T07:42:01.023Z,6.70
2018-08-28T07:45:04.360Z,6.20
2018-08-28T07:48:07.764Z,6.67
2018-08-28T07:51:10.994Z,5.73
2018-08-28T07:54:14.215Z,5.60
2018-08-28T07:57:17.486Z,5.40
2018-08-28T08:00:20.604Z,5.20
2018-08-28T08:03:24.874Z,5.20
2018-08-28T08:06:28.108Z,5.40
2018-08-28T08:09:31.280Z,5.30
2018-08-28T08:12:34.591Z,4.60
2018-08-28T08:15:38.871Z,4.47
2018-08-28T08:18:42.181Z,4.00
2018-08-28T08:21:45.443Z,4.30
2018-08-28T08:24:48.571Z,3.90
2018-08-28T08:27:51.922Z,4.67
2018-08-28T08:30:56.067Z,4.47
2018-08-28T08:33:59.347Z,5.00
2018-08-28T08:37:03.983Z,4.77
2018-08-28T08:40:07.290Z,4.60
2018-08-28T08:43:11.484Z,4.80
2018-08-28T08:46:15.133Z,5.03
2018-08-28T08:49:19.399Z,4.93
2018-08-28T08:52:24.317Z,4.10
2018-08-28T08:55:27.626Z,5.10
2018-08-28T08:58:30.965Z,4.97
2018-08-28T09:01:34.240Z,5.33
2018-08-28T09:04:37.647Z,5.37
2018-08-28T09:07:40.919Z,5.07
2018-08-28T09:10:44.115Z,5.10
2018-08-28T09:13:48.439Z,4.63
2018-08-28T09:16:52.391Z,4.60
2018-08-28T09:19:56.866Z,4.47
2018-08-28T09:23:00.167Z,4.90
2018-08-28T09:26:03.461Z,4.93
2018-08-28T09:29:06.872Z,4.30
2018-08-28T09:32:10.209Z,4.33
2018-08-28T09:35:13.472Z,3.97
2018-08-28T09:38:16.825Z,4.80
2018-08-28T09:41:20.004Z,4.67
2018-08-28T09:44:24.039Z,4.63
2018-08-28T09:47:27.391Z,4.23
2018-08-28T09:50:31.207Z,5.00
2018-08-28T09:53:34.427Z,4.40
2018-08-28T09:56:38.137Z,4.43
2018-08-28T09:59:41.318Z,4.30
2018-08-28T10:02:45.691Z,4.87
2018-08-28T10:05:49.068Z,4.53
2018-08-28T10:08:52.445Z,4.20
2018-08-28T10:11:56.444Z,4.60
2018-08-28T10:14:59.761Z,4.60
2018-08-28T10:18:05.106Z,4.50
2018-08-28T10:21:08.383Z,4.40
2018-08-28T10:24:11.547Z,4.37
2018-08-28T10:27:14.883Z,4.63
2018-08-28T10:30:18.598Z,5.23
2018-08-28T10:33:22.090Z,4.80
2018-08-28T10:36:26.680Z,4.87
2018-08-28T10:39:29.911Z,4.70
2018-08-28T10:42:33.214Z,4.37
2018-08-28T10:45:36.527Z,4.80
2018-08-28T10:48:39.921Z,4.27
2018-08-28T10:51:43.198Z,4.77
2018-08-28T10:54:46.555Z,4.83
2018-08-28T10:57:49.793Z,5.03
2018-08-28T11:00:53.526Z,4.80
2018-08-28T11:03:56.819Z,4.60
2018-08-28T11:07:00.006Z,5.30
2018-08-28T11:10:03.560Z,4.60
2018-08-28T11:13:07.159Z,4.80
2018-08-28T11:16:10.590Z,4.27
2018-08-28T11:19:13.944Z,5.03
2018-08-28T11:22:17.297Z,4.53
2018-08-28T11:25:20.486Z,4.63
2018-08-28T11:28:24.486Z,5.10
2018-08-28T11:31:27.882Z,4.90
2018-08-28T11:34:31.172Z,5.00
2018-08-28T11:37:35.466Z,4.90
2018-08-28T11:40:38.813Z,4.60
2018-08-28T11:43:42.006Z,5.33
2018-08-28T11:46:46.181Z,4.63
2018-08-28T11:49:49.480Z,4.77
2018-08-28T11:52:54.451Z,5.23
2018-08-28T11:55:57.701Z,4.67
2018-08-28T11:59:00.963Z,4.50
2018-08-28T12:02:04.502Z,4.63
2018-08-28T12:05:07.845Z,5.07
2018-08-28T12:08:11.099Z,4.87
2018-08-28T12:11:14.446Z,4.63
2018-08-28T12:14:19.844Z,4.37
2018-08-28T12:17:23.090Z,4.80
2018-08-28T12:20:27.886Z,4.50
2018-08-28T12:23:31.384Z,4.87
2018-08-28T12:26:34.980Z,4.67
2018-08-28T12:29:38.848Z,4.60
2018-08-28T12:32:42.096Z,5.27
2018-08-28T12:35:45.296Z,5.03
2018-08-28T12:38:48.758Z,5.00
2018-08-28T12:41:52.192Z,4.83
2018-08-28T12:44:56.103Z,5.33
2018-08-28T12:47:59.503Z,4.70
2018-08-28T12:51:02.790Z,5.33
2018-08-28T12:54:06.217Z,5.10
2018-08-28T12:57:09.599Z,4.63
2018-08-28T13:00:12.739Z,4.83
2018-08-28T13:03:16.055Z,5.13
2018-08-28T13:06:19.349Z,5.37
2018-08-28T13:09:22.715Z,5.50
2018-08-28T13:12:26.216Z,5.67
2018-08-28T13:15:29.467Z,5.33
2018-08-28T13:18:33.402Z,5.13
2018-08-28T13:21:37.026Z,5.60
2018-08-28T13:24:40.324Z,5.30
2018-08-28T13:27:43.855Z,5.50
2018-08-28T13:30:47.135Z,5.23
2018-08-28T13:33:50.367Z,5.60
2018-08-28T13:36:54.618Z,5.10
2018-08-28T13:39:57.790Z,5.13
2018-08-28T13:43:01.082Z,5.10
2018-08-28T13:46:04.496Z,5.00
2018-08-28T13:49:07.887Z,5.73
2018-08-28T13:52:11.237Z,5.20
2018-08-28T13:55:14.825Z,5.47
2018-08-28T13:58:18.136Z,5.17
2018-08-28T14:01:26.224Z,6.07
2018-08-28T14:04:29.521Z,5.27
2018-08-28T14:07:32.844Z,5.53
2018-08-28T14:10:36.160Z,5.97
2018-08-28T14:13:39.559Z,5.87
2018-08-28T14:16:42.893Z,5.67
2018-08-28T14:19:46.541Z,5.17
2018-08-28T14:22:49.921Z,5.80
2018-08-28T14:25:54.864Z,5.40
2018-08-28T14:28:58.260Z,5.47
2018-08-28T14:32:01.657Z,5.40
2018-08-28T14:35:04.949Z,5.30
2018-08-28T14:38:08.322Z,5.93
2018-08-28T14:41:12.102Z,5.47
2018-08-28T14:44:16.393Z,5.77
2018-08-28T14:47:19.639Z,5.47
2018-08-28T14:50:23.801Z,5.80
2018-08-28T14:53:26.856Z,5.17
2018-08-28T14:56:30.206Z,5.73
2018-08-28T14:59:33.429Z,6.20
2018-08-28T15:02:36.788Z,6.07
2018-08-28T15:05:40.162Z,5.90
2018-08-28T15:08:43.530Z,6.10
2018-08-28T15:11:46.923Z,5.57
2018-08-28T15:14:50.142Z,6.20
2018-08-28T15:17:54.623Z,6.37
2018-08-28T15:20:57.997Z,6.07
2018-08-28T15:24:02.435Z,6.17
2018-08-28T15:27:05.793Z,6.33
2018-08-28T15:30:09.063Z,6.07
2018-08-28T15:33:12.374Z,6.17
2018-08-28T15:36:15.721Z,6.30
2018-08-28T15:39:25.592Z,6.77
2018-08-28T15:42:28.831Z,6.10
2018-08-28T15:45:32.138Z,6.53
2018-08-28T15:48:35.577Z,6.43
2018-08-28T15:51:38.753Z,6.50
2018-08-28T15:54:41.944Z,6.70
2018-08-28T15:57:45.235Z,6.90
2018-08-28T16:00:48.409Z,6.07
2018-08-28T16:03:51.883Z,6.07
2018-08-28T16:06:56.165Z,6.83
2018-08-28T16:10:00.527Z,5.83
2018-08-28T16:13:03.796Z,5.93
2018-08-28T16:16:07.928Z,5.70
2018-08-28T16:19:11.156Z,5.87
2018-08-28T16:22:16.671Z,5.97
2018-08-28T16:25:20.089Z,6.17
2018-08-28T16:28:23.860Z,5.93
2018-08-28T16:31:27.111Z,6.43
2018-08-28T16:34:30.484Z,6.17
2018-08-28T16:37:33.758Z,7.00
2018-08-28T16:40:37.032Z,6.20
2018-08-28T16:43:40.448Z,6.07
2018-08-28T16:46:43.744Z,6.17
2018-08-28T16:49:47.059Z,6.27
2018-08-28T16:52:50.383Z,5.90
2018-08-28T16:55:54.559Z,5.90
2018-08-28T16:58:58.047Z,6.30
2018-08-28T17:02:01.475Z,6.33
2018-08-28T17:05:04.791Z,6.30
2018-08-28T17:08:09.063Z,6.70
2018-08-28T17:11:12.311Z,6.20
2018-08-28T17:14:15.595Z,5.70
2018-08-28T17:17:19.015Z,6.07
2018-08-28T17:20:22.304Z,6.00
2018-08-28T17:23:27.256Z,6.53
2018-08-28T17:26:30.581Z,6.40
2018-08-28T17:29:33.892Z,6.50
2018-08-28T17:32:37.064Z,6.47
2018-08-28T17:35:40.447Z,6.20
2018-08-28T17:38:43.771Z,6.43
2018-08-28T17:41:47.055Z,6.40
2018-08-28T17:44:50.361Z,6.90
2018-08-28T17:47:56.787Z,6.30
2018-08-28T17:51:00.123Z,6.40
2018-08-28T17:54:03.432Z,6.87
2018-08-28T17:57:06.912Z,6.97
2018-08-28T18:00:10.074Z,6.87
2018-08-28T18:03:13.369Z,6.87
2018-08-28T18:06:16.531Z,7.03
2018-08-28T18:09:19.760Z,6.80
2018-08-28T18:12:23.105Z,6.67
2018-08-28T18:15:27.288Z,6.87
2018-08-28T18:18:30.640Z,6.90
2018-08-28T18:21:33.950Z,6.87
2018-08-28T18:24:37.135Z,8.13
2018-08-28T18:27:40.491Z,9.40
2018-08-28T18:30:43.749Z,8.50
2018-08-28T18:33:47.011Z,7.43
2018-08-28T18:36:50.328Z,7.97
2018-08-28T18:39:54.070Z,8.20
2018-08-28T18:42:57.315Z,7.47
2018-08-28T18:46:00.616Z,7.23
2018-08-28T18:49:03.838Z,8.10
2018-08-28T18:52:07.138Z,8.70
2018-08-28T18:55:10.705Z,7.73
2018-08-28T18:58:14.039Z,7.33
2018-08-28T19:01:17.403Z,11.17
2018-08-28T19:04:20.660Z,8.80
2018-08-28T19:07:25.168Z,8.30
2018-08-28T19:10:29.349Z,8.23
2018-08-28T19:13:32.730Z,8.63
2018-08-28T19:16:35.956Z,9.00
2018-08-28T19:19:39.178Z,8.30
2018-08-28T19:22:42.590Z,7.20
2018-08-28T19:25:45.831Z,8.50
2018-08-28T19:28:50.416Z,8.10
2018-08-28T19:31:54.846Z,8.30
2018-08-28T19:34:58.008Z,8.37
2018-08-28T19:38:01.359Z,7.97
2018-08-28T19:41:04.612Z,8.00
2018-08-28T19:44:08.114Z,7.43
2018-08-28T19:47:11.323Z,7.77
2018-08-28T19:50:14.594Z,7.73
2018-08-28T19:53:17.744Z,7.77
2018-08-28T19:56:20.964Z,7.90
2018-08-28T19:59:24.348Z,6.93
2018-08-28T20:02:27.584Z,7.40
2018-08-28T20:05:30.916Z,7.57
2018-08-28T20:08:34.138Z,8.00
2018-08-28T20:11:37.483Z,7.93
2018-08-28T20:14:40.864Z,7.53
2018-08-28T20:17:44.071Z,8.23
2018-08-28T20:20:47.367Z,7.33
2018-08-28T20:23:56.641Z,7.70
2018-08-28T20:26:59.956Z,7.40
2018-08-28T20:30:03.219Z,7.77
2018-08-28T20:33:06.489Z,7.63
2018-08-28T20:36:09.771Z,7.40
2018-08-28T20:39:13.055Z,6.53
2018-08-28T20:42:16.388Z,7.13
2018-08-28T20:45:19.688Z,7.23
2018-08-28T20:48:23.066Z,6.77
2018-08-28T20:51:26.717Z,6.43
2018-08-28T20:54:30.056Z,6.83
2018-08-28T20:57:33.359Z,6.80
2018-08-28T21:00:37.116Z,6.67
2018-08-28T21:03:41.374Z,7.07
2018-08-28T21:06:44.653Z,7.33
2018-08-28T21:09:47.883Z,6.20
2018-08-28T21:12:51.667Z,6.33
2018-08-28T21:15:55.756Z,6.43
2018-08-28T21:18:59.083Z,7.10
2018-08-28T21:22:02.556Z,6.13
2018-08-28T21:25:05.801Z,6.57
2018-08-28T21:28:09.153Z,6.40
2018-08-28T21:31:12.398Z,6.40
2018-08-28T21:34:15.615Z,6.20
2018-08-28T21:37:18.991Z,6.17
2018-08-28T21:40:22.241Z,6.60
2018-08-28T21:43:26.545Z,6.80
2018-08-28T21:46:29.832Z,6.10
2018-08-28T21:49:33.247Z,6.30
2018-08-28T21:52:36.662Z,6.43
2018-08-28T21:55:39.958Z,6.47
2018-08-28T21:58:43.223Z,5.93
2018-08-28T22:01:46.609Z,6.60
2018-08-28T22:04:49.812Z,6.47
2018-08-28T22:07:57.201Z,6.50
2018-08-28T22:11:00.399Z,6.60
2018-08-28T22:14:03.812Z,6.50
2018-08-28T22:17:06.954Z,6.80
2018-08-28T22:20:10.563Z,7.33
2018-08-28T22:23:14.206Z,6.47
2018-08-28T22:26:17.338Z,7.30
2018-08-28T22:29:20.560Z,7.07
2018-08-28T22:32:24.762Z,6.83
2018-08-28T22:35:28.015Z,7.07
2018-08-28T22:38:31.686Z,6.93
2018-08-28T22:41:35.935Z,7.27
2018-08-28T22:44:43.850Z,7.20
2018-08-28T22:47:47.180Z,7.30
2018-08-28T22:50:50.457Z,6.37
2018-08-28T22:53:54.104Z,6.80
2018-08-28T22:56:57.327Z,6.67
2018-08-28T23:00:01.131Z,6.43
2018-08-28T23:03:04.362Z,6.30
2018-08-28T23:06:14.311Z,5.97
2018-08-28T23:09:17.595Z,6.10
2018-08-28T23:12:20.815Z,6.20
2018-08-28T23:15:25.168Z,6.20
2018-08-28T23:18:28.569Z,6.10
2018-08-28T23:21:31.906Z,6.23
2018-08-28T23:24:35.092Z,5.87
2018-08-28T23:27:38.280Z,6.17
2018-08-28T23:30:42.515Z,6.40
2018-08-28T23:33:45.852Z,6.30
2018-08-28T23:36:49.192Z,6.27
2018-08-28T23:39:52.454Z,7.03
2018-08-28T23:42:56.903Z,6.57
2018-08-28T23:46:00.111Z,6.17
2018-08-28T23:49:03.335Z,7.07
2018-08-28T23:52:06.644Z,6.57
2018-08-28T23:55:10.263Z,6.13
2018-08-28T23:58:13.515Z,6.73
